sensor_id;sensor_type;location;lat;lon;timestamp;P1;durP1;ratioP1;P2;durP2;ratioP2
22632;SDS011;11483;55.828;37.488;2024-03-17T00:02:13;35.30;;;6.43;;
22632;SDS011;11483;55.828;37.488;2024-03-17T00:04:38;38.07;;;6.77;;
22632;SDS011;11483;55.828;37.488;2024-03-17T00:07:04;44.63;;;7.00;;
22632;SDS011;11483;55.828;37.488;2024-03-17T00:09:30;45.97;;;7.53;;
22632;SDS011;11483;55.828;37.488;2024-03-17T00:11:56;30.23;;;6.53;;
22632;SDS011;11483;55.828;37.488;2024-03-17T00:14:22;41.33;;;6.57;;
22632;SDS011;11483;55.828;37.488;2024-03-17T00:16:48;57.10;;;8.43;;
22632;SDS011;11483;55.828;37.488;2024-03-17T00:19:14;32.93;;;6.40;;
22632;SDS011;11483;55.828;37.488;2024-03-17T00:21:42;41.07;;;6.90;;
22632;SDS011;11483;55.828;37.488;2024-03-17T00:24:09;32.00;;;6.10;;
22632;SDS011;11483;55.828;37.488;2024-03-17T00:26:35;37.90;;;7.33;;
22632;SDS011;11483;55.828;37.488;2024-03-17T00:29:01;42.77;;;7.33;;
22632;SDS011;11483;55.828;37.488;2024-03-17T00:31:28;30.03;;;6.50;;
22632;SDS011;11483;55.828;37.488;2024-03-17T00:33:54;40.33;;;7.30;;
22632;SDS011;11483;55.828;37.488;2024-03-17T00:36:20;46.83;;;8.40;;
22632;SDS011;11483;55.828;37.488;2024-03-17T00:38:46;41.37;;;7.07;;
22632;SDS011;11483;55.828;37.488;2024-03-17T00:41:11;47.67;;;7.03;;
22632;SDS011;11483;55.828;37.488;2024-03-17T00:43:37;50.13;;;7.83;;
22632;SDS011;11483;55.828;37.488;2024-03-17T00:46:03;34.17;;;7.27;;
22632;SDS011;11483;55.828;37.488;2024-03-17T00:48:29;45.60;;;7.50;;
22632;SDS011;11483;55.828;37.488;2024-03-17T00:50:57;49.47;;;8.60;;
22632;SDS011;11483;55.828;37.488;2024-03-17T00:53:24;38.63;;;7.67;;
22632;SDS011;11483;55.828;37.488;2024-03-17T00:55:51;43.47;;;8.67;;
22632;SDS011;11483;55.828;37.488;2024-03-17T00:58:18;40.27;;;6.83;;
22632;SDS011;11483;55.828;37.488;2024-03-17T01:00:47;36.50;;;7.43;;
22632;SDS011;11483;55.828;37.488;2024-03-17T01:03:14;41.07;;;7.83;;
22632;SDS011;11483;55.828;37.488;2024-03-17T01:05:40;48.03;;;8.23;;
22632;SDS011;11483;55.828;37.488;2024-03-17T01:08:08;43.80;;;8.43;;
22632;SDS011;11483;55.828;37.488;2024-03-17T01:10:38;52.03;;;8.27;;
22632;SDS011;11483;55.828;37.488;2024-03-17T01:13:05;34.10;;;7.43;;
22632;SDS011;11483;55.828;37.488;2024-03-17T01:15:41;36.83;;;8.33;;
22632;SDS011;11483;55.828;37.488;2024-03-17T01:18:07;36.27;;;8.50;;
22632;SDS011;11483;55.828;37.488;2024-03-17T01:20:36;37.30;;;8.70;;
22632;SDS011;11483;55.828;37.488;2024-03-17T01:23:03;52.23;;;7.97;;
22632;SDS011;11483;55.828;37.488;2024-03-17T01:25:30;40.20;;;8.17;;
22632;SDS011;11483;55.828;37.488;2024-03-17T01:27:56;41.43;;;8.50;;
22632;SDS011;11483;55.828;37.488;2024-03-17T01:30:22;46.93;;;8.33;;
22632;SDS011;11483;55.828;37.488;2024-03-17T01:32:49;43.03;;;8.10;;
22632;SDS011;11483;55.828;37.488;2024-03-17T01:35:16;37.53;;;7.87;;
22632;SDS011;11483;55.828;37.488;2024-03-17T01:37:42;36.80;;;8.47;;
22632;SDS011;11483;55.828;37.488;2024-03-17T01:40:08;33.97;;;8.00;;
22632;SDS011;11483;55.828;37.488;2024-03-17T01:42:36;36.13;;;8.07;;
22632;SDS011;11483;55.828;37.488;2024-03-17T01:47:41;49.60;;;9.07;;
22632;SDS011;11483;55.828;37.488;2024-03-17T01:50:07;52.03;;;8.33;;
22632;SDS011;11483;55.828;37.488;2024-03-17T01:52:34;46.97;;;9.43;;
22632;SDS011;11483;55.828;37.488;2024-03-17T01:55:02;42.17;;;9.20;;
22632;SDS011;11483;55.828;37.488;2024-03-17T01:57:29;35.93;;;9.83;;
22632;SDS011;11483;55.828;37.488;2024-03-17T01:59:56;41.93;;;8.83;;
22632;SDS011;11483;55.828;37.488;2024-03-17T02:02:25;43.00;;;10.00;;
22632;SDS011;11483;55.828;37.488;2024-03-17T02:04:51;42.80;;;9.07;;
22632;SDS011;11483;55.828;37.488;2024-03-17T02:07:18;60.90;;;8.87;;
22632;SDS011;11483;55.828;37.488;2024-03-17T02:09:44;40.23;;;9.27;;
22632;SDS011;11483;55.828;37.488;2024-03-17T02:12:10;44.37;;;9.27;;
22632;SDS011;11483;55.828;37.488;2024-03-17T02:14:37;31.43;;;8.13;;
22632;SDS011;11483;55.828;37.488;2024-03-17T02:17:03;58.13;;;8.77;;
22632;SDS011;11483;55.828;37.488;2024-03-17T02:19:29;39.33;;;9.03;;
22632;SDS011;11483;55.828;37.488;2024-03-17T02:21:55;43.27;;;7.93;;
22632;SDS011;11483;55.828;37.488;2024-03-17T02:24:21;47.83;;;9.57;;
22632;SDS011;11483;55.828;37.488;2024-03-17T02:26:47;43.73;;;9.70;;
22632;SDS011;11483;55.828;37.488;2024-03-17T02:29:16;49.03;;;8.97;;
22632;SDS011;11483;55.828;37.488;2024-03-17T02:31:42;61.67;;;9.23;;
22632;SDS011;11483;55.828;37.488;2024-03-17T02:34:08;47.23;;;9.20;;
22632;SDS011;11483;55.828;37.488;2024-03-17T02:36:34;48.73;;;9.37;;
22632;SDS011;11483;55.828;37.488;2024-03-17T02:39:00;48.60;;;8.43;;
22632;SDS011;11483;55.828;37.488;2024-03-17T02:41:44;33.73;;;8.57;;
22632;SDS011;11483;55.828;37.488;2024-03-17T02:44:11;48.37;;;8.90;;
22632;SDS011;11483;55.828;37.488;2024-03-17T02:46:37;42.37;;;10.13;;
22632;SDS011;11483;55.828;37.488;2024-03-17T02:49:03;35.37;;;8.57;;
22632;SDS011;11483;55.828;37.488;2024-03-17T02:51:29;40.43;;;9.33;;
22632;SDS011;11483;55.828;37.488;2024-03-17T02:53:55;61.27;;;9.87;;
22632;SDS011;11483;55.828;37.488;2024-03-17T02:56:24;34.67;;;9.13;;
22632;SDS011;11483;55.828;37.488;2024-03-17T02:58:50;46.77;;;8.83;;
22632;SDS011;11483;55.828;37.488;2024-03-17T03:01:16;36.33;;;9.53;;
22632;SDS011;11483;55.828;37.488;2024-03-17T03:03:43;44.37;;;8.93;;
22632;SDS011;11483;55.828;37.488;2024-03-17T03:06:10;40.50;;;9.10;;
22632;SDS011;11483;55.828;37.488;2024-03-17T03:08:38;43.07;;;9.80;;
22632;SDS011;11483;55.828;37.488;2024-03-17T03:11:10;51.70;;;9.30;;
22632;SDS011;11483;55.828;37.488;2024-03-17T03:13:40;49.23;;;9.30;;
22632;SDS011;11483;55.828;37.488;2024-03-17T03:16:09;35.83;;;8.87;;
22632;SDS011;11483;55.828;37.488;2024-03-17T03:18:36;41.53;;;9.43;;
22632;SDS011;11483;55.828;37.488;2024-03-17T03:21:06;44.47;;;9.07;;
22632;SDS011;11483;55.828;37.488;2024-03-17T03:23:32;45.10;;;9.30;;
22632;SDS011;11483;55.828;37.488;2024-03-17T03:25:59;55.43;;;10.00;;
22632;SDS011;11483;55.828;37.488;2024-03-17T03:28:30;50.40;;;10.50;;
22632;SDS011;11483;55.828;37.488;2024-03-17T03:30:58;55.40;;;10.07;;
22632;SDS011;11483;55.828;37.488;2024-03-17T03:33:24;40.93;;;8.77;;
22632;SDS011;11483;55.828;37.488;2024-03-17T03:35:50;53.97;;;9.03;;
22632;SDS011;11483;55.828;37.488;2024-03-17T03:38:17;53.53;;;9.47;;
22632;SDS011;11483;55.828;37.488;2024-03-17T03:40:44;53.67;;;8.93;;
22632;SDS011;11483;55.828;37.488;2024-03-17T03:43:10;71.50;;;9.10;;
22632;SDS011;11483;55.828;37.488;2024-03-17T03:45:39;50.70;;;9.77;;
22632;SDS011;11483;55.828;37.488;2024-03-17T03:48:05;51.20;;;9.80;;
22632;SDS011;11483;55.828;37.488;2024-03-17T03:50:33;42.23;;;9.87;;
22632;SDS011;11483;55.828;37.488;2024-03-17T03:52:59;53.47;;;9.93;;
22632;SDS011;11483;55.828;37.488;2024-03-17T03:55:25;37.73;;;8.77;;
22632;SDS011;11483;55.828;37.488;2024-03-17T03:57:51;59.33;;;9.30;;
22632;SDS011;11483;55.828;37.488;2024-03-17T04:00:18;43.30;;;8.77;;
22632;SDS011;11483;55.828;37.488;2024-03-17T04:02:47;43.53;;;9.63;;
22632;SDS011;11483;55.828;37.488;2024-03-17T04:05:17;42.27;;;8.77;;
22632;SDS011;11483;55.828;37.488;2024-03-17T04:07:45;37.63;;;10.10;;
22632;SDS011;11483;55.828;37.488;2024-03-17T04:10:12;48.70;;;9.90;;
22632;SDS011;11483;55.828;37.488;2024-03-17T04:12:39;49.83;;;9.17;;
22632;SDS011;11483;55.828;37.488;2024-03-17T04:15:05;52.93;;;9.90;;
22632;SDS011;11483;55.828;37.488;2024-03-17T04:17:32;39.87;;;10.10;;
22632;SDS011;11483;55.828;37.488;2024-03-17T04:19:58;71.90;;;10.20;;
22632;SDS011;11483;55.828;37.488;2024-03-17T04:22:24;46.17;;;9.67;;
22632;SDS011;11483;55.828;37.488;2024-03-17T04:24:51;48.00;;;9.13;;
22632;SDS011;11483;55.828;37.488;2024-03-17T04:27:21;53.17;;;10.07;;
22632;SDS011;11483;55.828;37.488;2024-03-17T04:29:54;48.73;;;10.40;;
22632;SDS011;11483;55.828;37.488;2024-03-17T04:32:21;52.13;;;9.70;;
22632;SDS011;11483;55.828;37.488;2024-03-17T04:34:48;44.70;;;10.20;;
22632;SDS011;11483;55.828;37.488;2024-03-17T04:37:15;53.70;;;10.23;;
22632;SDS011;11483;55.828;37.488;2024-03-17T04:39:43;29.07;;;8.90;;
22632;SDS011;11483;55.828;37.488;2024-03-17T04:42:13;45.80;;;9.90;;
22632;SDS011;11483;55.828;37.488;2024-03-17T04:44:41;39.63;;;10.33;;
22632;SDS011;11483;55.828;37.488;2024-03-17T04:47:07;61.50;;;10.67;;
22632;SDS011;11483;55.828;37.488;2024-03-17T04:49:44;45.13;;;9.63;;
22632;SDS011;11483;55.828;37.488;2024-03-17T04:52:10;52.37;;;10.13;;
22632;SDS011;11483;55.828;37.488;2024-03-17T04:54:37;71.13;;;10.13;;
22632;SDS011;11483;55.828;37.488;2024-03-17T04:57:03;34.80;;;10.00;;
22632;SDS011;11483;55.828;37.488;2024-03-17T04:59:29;35.97;;;9.77;;
22632;SDS011;11483;55.828;37.488;2024-03-17T05:01:58;47.27;;;9.77;;
22632;SDS011;11483;55.828;37.488;2024-03-17T05:04:24;49.17;;;9.53;;
22632;SDS011;11483;55.828;37.488;2024-03-17T05:06:50;53.37;;;10.63;;
22632;SDS011;11483;55.828;37.488;2024-03-17T05:09:16;45.43;;;9.53;;
22632;SDS011;11483;55.828;37.488;2024-03-17T05:11:42;35.50;;;9.60;;
22632;SDS011;11483;55.828;37.488;2024-03-17T05:14:08;59.23;;;10.87;;
22632;SDS011;11483;55.828;37.488;2024-03-17T05:16:36;52.50;;;10.43;;
22632;SDS011;11483;55.828;37.488;2024-03-17T05:19:02;42.07;;;10.53;;
22632;SDS011;11483;55.828;37.488;2024-03-17T05:21:29;38.83;;;10.20;;
22632;SDS011;11483;55.828;37.488;2024-03-17T05:23:55;51.37;;;11.33;;
22632;SDS011;11483;55.828;37.488;2024-03-17T05:26:25;49.67;;;10.47;;
22632;SDS011;11483;55.828;37.488;2024-03-17T05:28:51;48.83;;;11.17;;
22632;SDS011;11483;55.828;37.488;2024-03-17T05:31:17;63.23;;;12.73;;
22632;SDS011;11483;55.828;37.488;2024-03-17T05:33:43;52.87;;;11.10;;
22632;SDS011;11483;55.828;37.488;2024-03-17T05:36:10;58.97;;;11.07;;
22632;SDS011;11483;55.828;37.488;2024-03-17T05:38:36;49.77;;;11.00;;
22632;SDS011;11483;55.828;37.488;2024-03-17T05:41:03;63.53;;;10.83;;
22632;SDS011;11483;55.828;37.488;2024-03-17T05:43:33;44.30;;;10.87;;
22632;SDS011;11483;55.828;37.488;2024-03-17T05:46:07;46.57;;;11.73;;
22632;SDS011;11483;55.828;37.488;2024-03-17T05:48:35;55.53;;;11.50;;
22632;SDS011;11483;55.828;37.488;2024-03-17T05:51:08;51.20;;;12.00;;
22632;SDS011;11483;55.828;37.488;2024-03-17T05:53:35;58.33;;;11.63;;
22632;SDS011;11483;55.828;37.488;2024-03-17T05:56:02;57.90;;;12.17;;
22632;SDS011;11483;55.828;37.488;2024-03-17T05:58:29;58.13;;;11.87;;
22632;SDS011;11483;55.828;37.488;2024-03-17T06:00:56;81.17;;;11.90;;
22632;SDS011;11483;55.828;37.488;2024-03-17T06:03:23;52.20;;;11.53;;
22632;SDS011;11483;55.828;37.488;2024-03-17T06:05:49;58.67;;;11.70;;
22632;SDS011;11483;55.828;37.488;2024-03-17T06:08:15;71.93;;;12.53;;
22632;SDS011;11483;55.828;37.488;2024-03-17T06:10:42;58.87;;;11.47;;
22632;SDS011;11483;55.828;37.488;2024-03-17T06:13:09;48.87;;;12.20;;
22632;SDS011;11483;55.828;37.488;2024-03-17T06:15:38;55.07;;;11.60;;
22632;SDS011;11483;55.828;37.488;2024-03-17T06:18:05;56.47;;;12.90;;
22632;SDS011;11483;55.828;37.488;2024-03-17T06:20:34;64.90;;;11.53;;
22632;SDS011;11483;55.828;37.488;2024-03-17T06:23:00;50.97;;;12.03;;
22632;SDS011;11483;55.828;37.488;2024-03-17T06:25:26;61.23;;;13.70;;
22632;SDS011;11483;55.828;37.488;2024-03-17T06:27:53;58.63;;;13.60;;
22632;SDS011;11483;55.828;37.488;2024-03-17T06:30:22;61.47;;;12.83;;
22632;SDS011;11483;55.828;37.488;2024-03-17T06:32:48;58.27;;;13.13;;
22632;SDS011;11483;55.828;37.488;2024-03-17T06:35:14;69.50;;;12.73;;
22632;SDS011;11483;55.828;37.488;2024-03-17T06:37:44;62.70;;;11.03;;
22632;SDS011;11483;55.828;37.488;2024-03-17T06:40:12;69.83;;;12.37;;
22632;SDS011;11483;55.828;37.488;2024-03-17T06:42:39;51.57;;;11.20;;
22632;SDS011;11483;55.828;37.488;2024-03-17T06:45:06;66.17;;;12.60;;
22632;SDS011;11483;55.828;37.488;2024-03-17T06:47:35;86.53;;;14.03;;
22632;SDS011;11483;55.828;37.488;2024-03-17T06:50:05;51.80;;;13.10;;
22632;SDS011;11483;55.828;37.488;2024-03-17T06:52:32;66.40;;;13.10;;
22632;SDS011;11483;55.828;37.488;2024-03-17T06:54:58;63.35;;;12.48;;
22632;SDS011;11483;55.828;37.488;2024-03-17T06:57:24;52.80;;;12.07;;
22632;SDS011;11483;55.828;37.488;2024-03-17T06:59:50;87.00;;;23.45;;
22632;SDS011;11483;55.828;37.488;2024-03-17T07:02:16;51.58;;;13.60;;
22632;SDS011;11483;55.828;37.488;2024-03-17T07:04:43;62.00;;;13.25;;
22632;SDS011;11483;55.828;37.488;2024-03-17T07:07:09;47.35;;;13.50;;
22632;SDS011;11483;55.828;37.488;2024-03-17T07:09:37;54.25;;;12.98;;
22632;SDS011;11483;55.828;37.488;2024-03-17T07:12:05;55.88;;;11.48;;
22632;SDS011;11483;55.828;37.488;2024-03-17T07:14:32;47.88;;;11.05;;
22632;SDS011;11483;55.828;37.488;2024-03-17T07:17:16;54.80;;;12.70;;
22632;SDS011;11483;55.828;37.488;2024-03-17T07:19:43;46.08;;;12.27;;
22632;SDS011;11483;55.828;37.488;2024-03-17T07:22:08;56.85;;;11.48;;
22632;SDS011;11483;55.828;37.488;2024-03-17T07:24:34;57.17;;;12.07;;
22632;SDS011;11483;55.828;37.488;2024-03-17T07:27:00;38.65;;;11.20;;
22632;SDS011;11483;55.828;37.488;2024-03-17T07:29:26;48.92;;;11.35;;
22632;SDS011;11483;55.828;37.488;2024-03-17T07:31:52;38.70;;;11.80;;
22632;SDS011;11483;55.828;37.488;2024-03-17T07:34:18;50.35;;;12.27;;
22632;SDS011;11483;55.828;37.488;2024-03-17T07:36:44;32.17;;;11.02;;
22632;SDS011;11483;55.828;37.488;2024-03-17T07:39:11;49.70;;;12.18;;
22632;SDS011;11483;55.828;37.488;2024-03-17T07:41:37;53.35;;;13.10;;
22632;SDS011;11483;55.828;37.488;2024-03-17T07:44:03;54.33;;;12.45;;
22632;SDS011;11483;55.828;37.488;2024-03-17T07:46:29;45.45;;;11.20;;
22632;SDS011;11483;55.828;37.488;2024-03-17T07:48:55;64.80;;;19.60;;
22632;SDS011;11483;55.828;37.488;2024-03-17T07:51:21;68.43;;;14.30;;
22632;SDS011;11483;55.828;37.488;2024-03-17T07:53:48;34.88;;;11.70;;
22632;SDS011;11483;55.828;37.488;2024-03-17T07:56:15;43.85;;;11.30;;
22632;SDS011;11483;55.828;37.488;2024-03-17T07:58:42;57.08;;;13.43;;
22632;SDS011;11483;55.828;37.488;2024-03-17T08:01:09;56.45;;;12.88;;
22632;SDS011;11483;55.828;37.488;2024-03-17T08:03:39;52.20;;;11.88;;
22632;SDS011;11483;55.828;37.488;2024-03-17T08:06:06;46.63;;;11.93;;
22632;SDS011;11483;55.828;37.488;2024-03-17T08:08:33;41.72;;;11.70;;
22632;SDS011;11483;55.828;37.488;2024-03-17T08:11:00;45.50;;;11.85;;
22632;SDS011;11483;55.828;37.488;2024-03-17T08:13:28;62.90;;;11.90;;
22632;SDS011;11483;55.828;37.488;2024-03-17T08:16:07;62.60;;;12.75;;
22632;SDS011;11483;55.828;37.488;2024-03-17T08:18:36;51.03;;;11.90;;
22632;SDS011;11483;55.828;37.488;2024-03-17T08:21:03;44.13;;;12.70;;
22632;SDS011;11483;55.828;37.488;2024-03-17T08:23:29;53.72;;;12.88;;
22632;SDS011;11483;55.828;37.488;2024-03-17T08:25:56;58.40;;;13.50;;
22632;SDS011;11483;55.828;37.488;2024-03-17T08:28:23;53.33;;;12.73;;
22632;SDS011;11483;55.828;37.488;2024-03-17T08:30:51;88.45;;;12.75;;
22632;SDS011;11483;55.828;37.488;2024-03-17T08:33:20;66.47;;;13.48;;
22632;SDS011;11483;55.828;37.488;2024-03-17T08:36:03;39.83;;;12.75;;
22632;SDS011;11483;55.828;37.488;2024-03-17T08:38:31;57.88;;;14.00;;
22632;SDS011;11483;55.828;37.488;2024-03-17T08:40:58;58.35;;;14.73;;
22632;SDS011;11483;55.828;37.488;2024-03-17T08:43:34;53.88;;;13.48;;
22632;SDS011;11483;55.828;37.488;2024-03-17T08:46:01;58.95;;;13.30;;
22632;SDS011;11483;55.828;37.488;2024-03-17T08:48:29;69.03;;;16.05;;
22632;SDS011;11483;55.828;37.488;2024-03-17T08:50:56;64.18;;;15.80;;
22632;SDS011;11483;55.828;37.488;2024-03-17T08:53:22;69.97;;;15.73;;
22632;SDS011;11483;55.828;37.488;2024-03-17T08:55:49;54.47;;;14.57;;
22632;SDS011;11483;55.828;37.488;2024-03-17T08:58:15;71.80;;;15.32;;
22632;SDS011;11483;55.828;37.488;2024-03-17T09:00:42;58.35;;;14.70;;
22632;SDS011;11483;55.828;37.488;2024-03-17T09:03:08;58.08;;;15.82;;
22632;SDS011;11483;55.828;37.488;2024-03-17T09:05:44;59.85;;;13.38;;
22632;SDS011;11483;55.828;37.488;2024-03-17T09:08:19;66.03;;;13.80;;
22632;SDS011;11483;55.828;37.488;2024-03-17T09:10:47;74.75;;;15.68;;
22632;SDS011;11483;55.828;37.488;2024-03-17T09:13:16;51.72;;;14.55;;
22632;SDS011;11483;55.828;37.488;2024-03-17T09:15:53;53.10;;;14.50;;
22632;SDS011;11483;55.828;37.488;2024-03-17T09:18:22;47.95;;;13.65;;
22632;SDS011;11483;55.828;37.488;2024-03-17T09:20:58;70.63;;;14.38;;
22632;SDS011;11483;55.828;37.488;2024-03-17T09:23:27;59.13;;;14.07;;
22632;SDS011;11483;55.828;37.488;2024-03-17T09:25:55;69.78;;;15.85;;
22632;SDS011;11483;55.828;37.488;2024-03-17T09:28:26;70.43;;;16.08;;
22632;SDS011;11483;55.828;37.488;2024-03-17T09:30:53;83.15;;;16.00;;
22632;SDS011;11483;55.828;37.488;2024-03-17T09:33:20;69.10;;;14.90;;
22632;SDS011;11483;55.828;37.488;2024-03-17T09:38:20;67.75;;;15.30;;
22632;SDS011;11483;55.828;37.488;2024-03-17T09:40:46;55.20;;;15.85;;
22632;SDS011;11483;55.828;37.488;2024-03-17T09:43:15;57.28;;;13.40;;
22632;SDS011;11483;55.828;37.488;2024-03-17T09:45:40;67.22;;;13.77;;
22632;SDS011;11483;55.828;37.488;2024-03-17T09:48:06;69.32;;;17.55;;
22632;SDS011;11483;55.828;37.488;2024-03-17T09:50:39;62.47;;;13.60;;
22632;SDS011;11483;55.828;37.488;2024-03-17T09:53:06;76.50;;;16.25;;
22632;SDS011;11483;55.828;37.488;2024-03-17T09:55:42;53.80;;;15.52;;
22632;SDS011;11483;55.828;37.488;2024-03-17T09:58:14;62.22;;;15.02;;
22632;SDS011;11483;55.828;37.488;2024-03-17T10:00:44;54.72;;;16.23;;
22632;SDS011;11483;55.828;37.488;2024-03-17T10:03:11;55.65;;;14.50;;
22632;SDS011;11483;55.828;37.488;2024-03-17T10:05:40;40.20;;;13.18;;
22632;SDS011;11483;55.828;37.488;2024-03-17T10:08:06;65.63;;;16.17;;
22632;SDS011;11483;55.828;37.488;2024-03-17T10:10:33;53.58;;;15.15;;
22632;SDS011;11483;55.828;37.488;2024-03-17T10:13:00;64.90;;;14.88;;
22632;SDS011;11483;55.828;37.488;2024-03-17T10:15:26;55.70;;;13.93;;
22632;SDS011;11483;55.828;37.488;2024-03-17T10:17:52;67.70;;;13.77;;
22632;SDS011;11483;55.828;37.488;2024-03-17T10:20:21;59.03;;;12.70;;
22632;SDS011;11483;55.828;37.488;2024-03-17T10:23:01;56.25;;;13.48;;
22632;SDS011;11483;55.828;37.488;2024-03-17T10:25:32;62.63;;;13.05;;
22632;SDS011;11483;55.828;37.488;2024-03-17T10:28:00;58.55;;;12.27;;
22632;SDS011;11483;55.828;37.488;2024-03-17T10:30:27;50.33;;;12.45;;
22632;SDS011;11483;55.828;37.488;2024-03-17T10:32:56;47.35;;;12.40;;
22632;SDS011;11483;55.828;37.488;2024-03-17T10:35:27;71.45;;;12.55;;
22632;SDS011;11483;55.828;37.488;2024-03-17T10:37:59;50.83;;;12.18;;
22632;SDS011;11483;55.828;37.488;2024-03-17T10:40:26;51.55;;;11.95;;
22632;SDS011;11483;55.828;37.488;2024-03-17T10:42:54;48.58;;;10.95;;
22632;SDS011;11483;55.828;37.488;2024-03-17T10:45:21;58.03;;;11.63;;
22632;SDS011;11483;55.828;37.488;2024-03-17T10:47:48;42.75;;;10.68;;
22632;SDS011;11483;55.828;37.488;2024-03-17T10:50:22;56.13;;;11.63;;
22632;SDS011;11483;55.828;37.488;2024-03-17T10:52:52;50.53;;;11.65;;
22632;SDS011;11483;55.828;37.488;2024-03-17T10:55:24;68.68;;;11.30;;
22632;SDS011;11483;55.828;37.488;2024-03-17T10:57:54;63.92;;;11.30;;
22632;SDS011;11483;55.828;37.488;2024-03-17T11:03:09;38.97;;;11.63;;
22632;SDS011;11483;55.828;37.488;2024-03-17T11:05:36;33.15;;;10.55;;
22632;SDS011;11483;55.828;37.488;2024-03-17T11:08:03;44.00;;;9.70;;
22632;SDS011;11483;55.828;37.488;2024-03-17T11:10:33;41.58;;;8.98;;
22632;SDS011;11483;55.828;37.488;2024-03-17T11:13:01;39.05;;;9.88;;
22632;SDS011;11483;55.828;37.488;2024-03-17T11:18:40;49.08;;;10.27;;
22632;SDS011;11483;55.828;37.488;2024-03-17T11:23:33;40.25;;;10.82;;
22632;SDS011;11483;55.828;37.488;2024-03-17T11:26:02;35.95;;;9.85;;
22632;SDS011;11483;55.828;37.488;2024-03-17T11:34:33;34.08;;;9.65;;
22632;SDS011;11483;55.828;37.488;2024-03-17T11:37:06;43.75;;;8.77;;
22632;SDS011;11483;55.828;37.488;2024-03-17T11:39:52;33.55;;;10.13;;
22632;SDS011;11483;55.828;37.488;2024-03-17T11:42:23;35.38;;;10.75;;
22632;SDS011;11483;55.828;37.488;2024-03-17T11:44:58;31.35;;;9.07;;
22632;SDS011;11483;55.828;37.488;2024-03-17T11:47:36;49.00;;;10.05;;
22632;SDS011;11483;55.828;37.488;2024-03-17T11:50:07;60.58;;;14.07;;
22632;SDS011;11483;55.828;37.488;2024-03-17T11:52:35;56.00;;;10.85;;
22632;SDS011;11483;55.828;37.488;2024-03-17T11:55:03;54.85;;;10.05;;
22632;SDS011;11483;55.828;37.488;2024-03-17T11:57:30;36.47;;;10.65;;
22632;SDS011;11483;55.828;37.488;2024-03-17T11:59:56;46.50;;;9.57;;
22632;SDS011;11483;55.828;37.488;2024-03-17T12:02:23;45.45;;;11.07;;
22632;SDS011;11483;55.828;37.488;2024-03-17T12:04:58;54.28;;;10.43;;
22632;SDS011;11483;55.828;37.488;2024-03-17T12:07:26;44.42;;;9.93;;
22632;SDS011;11483;55.828;37.488;2024-03-17T12:09:53;50.38;;;10.75;;
22632;SDS011;11483;55.828;37.488;2024-03-17T12:12:21;56.08;;;12.18;;
22632;SDS011;11483;55.828;37.488;2024-03-17T12:14:56;52.70;;;10.52;;
22632;SDS011;11483;55.828;37.488;2024-03-17T12:17:22;56.05;;;10.13;;
22632;SDS011;11483;55.828;37.488;2024-03-17T12:19:49;54.10;;;10.18;;
22632;SDS011;11483;55.828;37.488;2024-03-17T12:22:37;48.47;;;11.23;;
22632;SDS011;11483;55.828;37.488;2024-03-17T12:25:04;57.72;;;10.32;;
22632;SDS011;11483;55.828;37.488;2024-03-17T12:28:01;63.07;;;12.70;;
22632;SDS011;11483;55.828;37.488;2024-03-17T12:30:29;51.85;;;10.20;;
22632;SDS011;11483;55.828;37.488;2024-03-17T12:32:55;61.78;;;11.25;;
22632;SDS011;11483;55.828;37.488;2024-03-17T12:35:21;57.00;;;12.27;;
22632;SDS011;11483;55.828;37.488;2024-03-17T12:37:47;71.78;;;10.60;;
22632;SDS011;11483;55.828;37.488;2024-03-17T12:40:23;63.65;;;11.70;;
22632;SDS011;11483;55.828;37.488;2024-03-17T12:42:49;48.03;;;10.70;;
22632;SDS011;11483;55.828;37.488;2024-03-17T12:45:22;64.05;;;11.00;;
22632;SDS011;11483;55.828;37.488;2024-03-17T12:47:49;53.40;;;10.45;;
22632;SDS011;11483;55.828;37.488;2024-03-17T12:50:34;65.30;;;10.93;;
22632;SDS011;11483;55.828;37.488;2024-03-17T12:53:01;68.15;;;10.50;;
22632;SDS011;11483;55.828;37.488;2024-03-17T12:55:27;72.10;;;9.73;;
22632;SDS011;11483;55.828;37.488;2024-03-17T12:58:11;56.53;;;11.00;;
22632;SDS011;11483;55.828;37.488;2024-03-17T13:03:25;58.47;;;9.77;;
22632;SDS011;11483;55.828;37.488;2024-03-17T13:05:53;48.35;;;8.80;;
22632;SDS011;11483;55.828;37.488;2024-03-17T13:08:18;71.07;;;10.85;;
22632;SDS011;11483;55.828;37.488;2024-03-17T13:10:44;69.22;;;11.15;;
22632;SDS011;11483;55.828;37.488;2024-03-17T13:13:11;55.33;;;10.57;;
22632;SDS011;11483;55.828;37.488;2024-03-17T13:15:40;46.07;;;9.50;;
22632;SDS011;11483;55.828;37.488;2024-03-17T13:18:07;44.03;;;10.60;;
22632;SDS011;11483;55.828;37.488;2024-03-17T13:20:33;58.80;;;10.07;;
22632;SDS011;11483;55.828;37.488;2024-03-17T13:23:00;89.65;;;10.48;;
22632;SDS011;11483;55.828;37.488;2024-03-17T13:25:29;58.53;;;9.15;;
22632;SDS011;11483;55.828;37.488;2024-03-17T13:28:00;57.38;;;9.75;;
22632;SDS011;11483;55.828;37.488;2024-03-17T13:30:26;59.63;;;10.65;;
22632;SDS011;11483;55.828;37.488;2024-03-17T13:32:53;48.03;;;9.50;;
22632;SDS011;11483;55.828;37.488;2024-03-17T13:35:27;46.72;;;9.15;;
22632;SDS011;11483;55.828;37.488;2024-03-17T13:37:57;54.15;;;10.02;;
22632;SDS011;11483;55.828;37.488;2024-03-17T13:40:27;48.03;;;9.30;;
22632;SDS011;11483;55.828;37.488;2024-03-17T13:42:54;70.47;;;10.57;;
22632;SDS011;11483;55.828;37.488;2024-03-17T13:45:22;49.90;;;10.02;;
22632;SDS011;11483;55.828;37.488;2024-03-17T13:47:56;56.75;;;9.13;;
22632;SDS011;11483;55.828;37.488;2024-03-17T13:50:24;56.88;;;10.77;;
22632;SDS011;11483;55.828;37.488;2024-03-17T13:52:51;70.30;;;12.25;;
22632;SDS011;11483;55.828;37.488;2024-03-17T13:55:20;76.85;;;12.00;;
22632;SDS011;11483;55.828;37.488;2024-03-17T13:57:51;73.95;;;11.70;;
22632;SDS011;11483;55.828;37.488;2024-03-17T14:00:25;57.67;;;11.57;;
22632;SDS011;11483;55.828;37.488;2024-03-17T14:02:53;53.65;;;9.43;;
22632;SDS011;11483;55.828;37.488;2024-03-17T14:05:21;42.20;;;9.45;;
22632;SDS011;11483;55.828;37.488;2024-03-17T14:07:49;58.80;;;9.05;;
22632;SDS011;11483;55.828;37.488;2024-03-17T14:10:17;63.20;;;10.07;;
22632;SDS011;11483;55.828;37.488;2024-03-17T14:12:44;46.13;;;8.57;;
22632;SDS011;11483;55.828;37.488;2024-03-17T14:15:11;40.00;;;9.13;;
22632;SDS011;11483;55.828;37.488;2024-03-17T14:17:38;38.25;;;8.68;;
22632;SDS011;11483;55.828;37.488;2024-03-17T14:20:09;48.15;;;9.02;;
22632;SDS011;11483;55.828;37.488;2024-03-17T14:22:39;48.83;;;8.93;;
22632;SDS011;11483;55.828;37.488;2024-03-17T14:25:09;52.92;;;9.93;;
22632;SDS011;11483;55.828;37.488;2024-03-17T14:27:37;53.15;;;10.65;;
22632;SDS011;11483;55.828;37.488;2024-03-17T14:30:04;42.30;;;9.80;;
22632;SDS011;11483;55.828;37.488;2024-03-17T14:32:31;40.60;;;8.77;;
22632;SDS011;11483;55.828;37.488;2024-03-17T14:34:57;43.40;;;9.02;;
22632;SDS011;11483;55.828;37.488;2024-03-17T14:37:23;57.22;;;9.82;;
22632;SDS011;11483;55.828;37.488;2024-03-17T14:39:50;36.30;;;9.20;;
22632;SDS011;11483;55.828;37.488;2024-03-17T14:42:17;41.63;;;8.90;;